Time;durP1;ratioP1;P1;durP2;ratioP2;P2;SDS_P1;SDS_P2;PMS_P1;PMS_P2;Temp;Humidity;BMP_temperature;BMP_pressure;BME280_temperature;BME280_humidity;BME280_pressure;Samples;Min_cycle;Max_cycle;Signal;HPM_P1;HPM_P2
2021/08/13 00:00:34;;;;;;;;;13.00;9.67;;;;;;;;5082196;28;45400;-84
2021/08/13 00:02:59;;;;;;;;;12.25;10.50;;;;;;;;5077617;28;46196;-83
2021/08/13 00:05:24;;;;;;;;;13.33;10.00;;;;;;;;5079762;28;45583;-84
2021/08/13 00:07:49;;;;;;;;;13.75;10.00;;;;;;;;5078334;28;46139;-84
2021/08/13 00:10:14;;;;;;;;;9.67;9.67;;;;;;;;5070546;28;45516;-83
2021/08/13 00:12:40;;;;;;;;;12.33;10.00;;;;;;;;5077008;28;45392;-84
2021/08/13 00:15:05;;;;;;;;;10.50;9.75;;;;;;;;5082905;27;45484;-84
2021/08/13 00:17:30;;;;;;;;;12.00;9.25;;;;;;;;5082571;27;45219;-85
2021/08/13 00:19:56;;;;;;;;;11.33;9.00;;;;;;;;5074381;28;45334;-83
2021/08/13 00:22:21;;;;;;;;;12.50;10.50;;;;;;;;5079683;28;45251;-83
2021/08/13 00:24:46;;;;;;;;;12.25;9.75;;;;;;;;5079978;28;45425;-83
2021/08/13 00:27:12;;;;;;;;;16.00;11.75;;;;;;;;5079019;28;45363;-83
2021/08/13 00:29:37;;;;;;;;;12.75;11.00;;;;;;;;5072295;28;48469;-83
2021/08/13 00:32:02;;;;;;;;;13.00;11.00;;;;;;;;5059894;28;45299;-83
2021/08/13 00:34:28;;;;;;;;;11.00;9.75;;;;;;;;5075537;28;45881;-83
2021/08/13 00:36:53;;;;;;;;;11.00;9.00;;;;;;;;5079750;28;45288;-82
2021/08/13 00:39:18;;;;;;;;;9.00;9.00;;;;;;;;5080185;28;45484;-82
2021/08/13 00:41:43;;;;;;;;;11.00;11.00;;;;;;;;5081020;28;45784;-82
2021/08/13 00:44:08;;;;;;;;;16.00;11.50;;;;;;;;5073504;28;45499;-82
2021/08/13 00:46:34;;;;;;;;;10.00;8.67;;;;;;;;5082828;28;45393;-82
2021/08/13 00:48:59;;;;;;;;;12.00;10.25;;;;;;;;5084307;28;45459;-82
2021/08/13 00:51:24;;;;;;;;;14.00;11.67;;;;;;;;5081239;28;45409;-82
2021/08/13 00:53:50;;;;;;;;;17.00;11.00;;;;;;;;5072991;28;45387;-82
2021/08/13 00:56:16;;;;;;;;;12.50;11.25;;;;;;;;5086686;28;45420;-82
2021/08/13 00:58:42;;;;;;;;;11.00;10.00;;;;;;;;5084137;28;45337;-82
2021/08/13 01:01:07;;;;;;;;;14.00;12.25;;;;;;;;5065806;28;45248;-82
2021/08/13 01:03:32;;;;;;;;;15.00;12.00;;;;;;;;5064686;28;45426;-82
2021/08/13 01:05:58;;;;;;;;;12.50;9.75;;;;;;;;5081247;28;45624;-82
2021/08/13 01:08:23;;;;;;;;;10.25;10.00;;;;;;;;5078628;28;45304;-81
2021/08/13 01:11:01;;;;;;;;;10.67;9.00;;;;;;;;5087117;28;45290;-82
2021/08/13 01:13:41;;;;;;;;;12.50;10.50;;;;;;;;5070864;28;45487;-82
2021/08/13 01:16:07;;;;;;;;;11.25;10.75;;;;;;;;5082314;28;45432;-82
2021/08/13 01:18:34;;;;;;;;;13.00;10.00;;;;;;;;5082332;28;46371;-82
2021/08/13 01:21:14;;;;;;;;;8.25;8.25;;;;;;;;5078767;28;45234;-82
2021/08/13 01:23:43;;;;;;;;;13.75;11.00;;;;;;;;5068944;28;45306;-82
2021/08/13 01:26:09;;;;;;;;;14.00;11.25;;;;;;;;5082017;28;45371;-82
2021/08/13 01:28:37;;;;;;;;;13.50;11.25;;;;;;;;5081985;28;46077;-82
2021/08/13 01:31:07;;;;;;;;;11.50;8.50;;;;;;;;5082198;28;45629;-82
2021/08/13 01:33:32;;;;;;;;;11.00;10.00;;;;;;;;5068594;28;45389;-82
2021/08/13 01:35:59;;;;;;;;;16.50;10.00;;;;;;;;5077097;28;45322;-82
2021/08/13 01:38:27;;;;;;;;;10.00;10.00;;;;;;;;5069358;28;45387;-82
2021/08/13 01:40:54;;;;;;;;;14.75;11.00;;;;;;;;5061950;28;45471;-82
2021/08/13 01:43:20;;;;;;;;;11.50;11.25;;;;;;;;5062476;28;45429;-82
2021/08/13 01:45:46;;;;;;;;;8.75;8.00;;;;;;;;5069630;28;45561;-83
2021/08/13 01:48:12;;;;;;;;;9.00;8.75;;;;;;;;5082988;28;45808;-82
2021/08/13 01:50:38;;;;;;;;;13.25;11.00;;;;;;;;5082316;28;45384;-82
2021/08/13 01:53:03;;;;;;;;;11.00;10.00;;;;;;;;5072611;28;45379;-83
2021/08/13 01:55:30;;;;;;;;;11.25;10.75;;;;;;;;5074319;28;45475;-82
2021/08/13 01:57:55;;;;;;;;;13.75;9.50;;;;;;;;5081599;27;46276;-83
2021/08/13 02:00:21;;;;;;;;;11.25;9.25;;;;;;;;5079860;28;45421;-82
2021/08/13 02:02:47;;;;;;;;;9.75;9.00;;;;;;;;5077548;28;45500;-82
2021/08/13 02:05:16;;;;;;;;;10.00;10.00;;;;;;;;5076378;28;45497;-83
2021/08/13 02:07:41;;;;;;;;;14.75;10.50;;;;;;;;5081708;28;45421;-82
2021/08/13 02:10:08;;;;;;;;;13.00;10.50;;;;;;;;5076513;28;45237;-82
2021/08/13 02:12:34;;;;;;;;;13.00;10.75;;;;;;;;5063880;28;45316;-82
2021/08/13 02:14:59;;;;;;;;;14.75;9.75;;;;;;;;5079844;28;45473;-82
2021/08/13 02:17:29;;;;;;;;;11.25;9.25;;;;;;;;5077555;28;47055;-82
2021/08/13 02:19:54;;;;;;;;;12.50;10.00;;;;;;;;5080253;28;45308;-82
2021/08/13 02:22:19;;;;;;;;;10.00;9.00;;;;;;;;5081308;28;45484;-82
2021/08/13 02:24:44;;;;;;;;;13.00;8.75;;;;;;;;5081579;28;45438;-82
2021/08/13 02:27:10;;;;;;;;;12.67;9.67;;;;;;;;5080758;28;46208;-82
2021/08/13 02:29:35;;;;;;;;;11.25;10.25;;;;;;;;5073157;28;45396;-82
2021/08/13 02:32:00;;;;;;;;;9.00;8.75;;;;;;;;5079956;28;45493;-83
2021/08/13 02:34:26;;;;;;;;;11.33;9.00;;;;;;;;5077091;28;45426;-83
2021/08/13 02:37:00;;;;;;;;;11.67;8.00;;;;;;;;5061619;28;45393;-82
2021/08/13 02:39:30;;;;;;;;;11.00;9.00;;;;;;;;5065433;28;45378;-82
2021/08/13 02:41:57;;;;;;;;;8.75;6.50;;;;;;;;5081235;28;45223;-82
2021/08/13 02:44:23;;;;;;;;;12.25;8.50;;;;;;;;5080811;28;45325;-82
2021/08/13 02:46:53;;;;;;;;;9.75;8.75;;;;;;;;5080904;28;46097;-82
2021/08/13 02:49:19;;;;;;;;;10.75;8.25;;;;;;;;5076743;28;45168;-82
2021/08/13 02:51:45;;;;;;;;;9.50;8.00;;;;;;;;5080963;28;45497;-82
2021/08/13 02:54:16;;;;;;;;;10.50;8.50;;;;;;;;5080957;28;45387;-82
2021/08/13 02:56:43;;;;;;;;;10.25;8.50;;;;;;;;5080276;28;45421;-83
2021/08/13 02:59:10;;;;;;;;;10.50;8.75;;;;;;;;5076011;28;45459;-82
2021/08/13 03:01:38;;;;;;;;;10.50;8.50;;;;;;;;5079238;28;45279;-82
2021/08/13 03:04:04;;;;;;;;;8.75;7.75;;;;;;;;5074954;28;45456;-82
2021/08/13 03:06:35;;;;;;;;;8.75;8.25;;;;;;;;5067556;28;45373;-82
2021/08/13 03:09:01;;;;;;;;;8.25;8.25;;;;;;;;5065297;28;45579;-83
2021/08/13 03:11:27;;;;;;;;;7.00;6.75;;;;;;;;5063480;28;45501;-82
2021/08/13 03:13:53;;;;;;;;;7.00;7.00;;;;;;;;5074082;28;45389;-82
2021/08/13 03:16:19;;;;;;;;;11.00;6.25;;;;;;;;5077926;28;45429;-82
2021/08/13 03:18:45;;;;;;;;;7.00;7.00;;;;;;;;5082379;28;45323;-82
2021/08/13 03:21:11;;;;;;;;;9.25;7.75;;;;;;;;5072378;28;44823;-82
2021/08/13 03:23:37;;;;;;;;;9.50;7.50;;;;;;;;5073880;28;45381;-82
2021/08/13 03:26:04;;;;;;;;;6.75;5.00;;;;;;;;5080181;28;45435;-82
2021/08/13 03:28:29;;;;;;;;;6.00;6.00;;;;;;;;5079057;28;45332;-82
2021/08/13 03:30:54;;;;;;;;;7.00;6.00;;;;;;;;5080524;28;45234;-82
2021/08/13 03:33:19;;;;;;;;;6.00;5.00;;;;;;;;5079519;28;45575;-82
2021/08/13 03:35:45;;;;;;;;;5.25;5.25;;;;;;;;5074739;28;46555;-82
2021/08/13 03:38:11;;;;;;;;;7.00;7.00;;;;;;;;5065378;28;45208;-82
2021/08/13 03:40:36;;;;;;;;;6.25;5.25;;;;;;;;5078803;28;45319;-82
2021/08/13 03:43:01;;;;;;;;;7.00;6.00;;;;;;;;5068225;28;45345;-82
2021/08/13 03:45:27;;;;;;;;;5.75;5.75;;;;;;;;5080193;28;45581;-82
2021/08/13 03:47:52;;;;;;;;;7.00;6.00;;;;;;;;5079901;28;45419;-82
2021/08/13 03:50:17;;;;;;;;;4.33;4.33;;;;;;;;5075349;28;45491;-82
2021/08/13 03:52:43;;;;;;;;;5.50;5.50;;;;;;;;5078150;28;45355;-82
2021/08/13 03:55:11;;;;;;;;;6.75;5.75;;;;;;;;5074652;28;45409;-83
2021/08/13 03:57:36;;;;;;;;;6.25;6.25;;;;;;;;5079549;28;45231;-82
2021/08/13 04:00:01;;;;;;;;;6.00;6.00;;;;;;;;5099134;28;45384;-81
2021/08/13 04:02:26;;;;;;;;;7.75;7.00;;;;;;;;5077202;28;45746;-82
2021/08/13 04:04:51;;;;;;;;;6.25;5.75;;;;;;;;5080364;28;45667;-82
2021/08/13 04:07:17;;;;;;;;;8.67;6.33;;;;;;;;5071955;28;45499;-82
2021/08/13 04:09:42;;;;;;;;;5.67;5.67;;;;;;;;5064230;28;45324;-82
2021/08/13 04:12:07;;;;;;;;;7.67;7.00;;;;;;;;5066581;28;45396;-82
2021/08/13 04:14:32;;;;;;;;;6.00;5.00;;;;;;;;5078982;28;47026;-82
2021/08/13 04:16:58;;;;;;;;;7.33;6.00;;;;;;;;5080646;28;45278;-82
2021/08/13 04:19:23;;;;;;;;;8.33;5.33;;;;;;;;5072051;28;45662;-82
2021/08/13 04:21:49;;;;;;;;;9.00;6.00;;;;;;;;5074458;28;45574;-82
2021/08/13 04:24:14;;;;;;;;;9.00;7.00;;;;;;;;5081823;28;45441;-82
2021/08/13 04:26:39;;;;;;;;;6.00;4.33;;;;;;;;5083360;28;45286;-82
2021/08/13 04:29:04;;;;;;;;;7.33;2.00;;;;;;;;5083151;28;46697;-82
2021/08/13 04:31:29;;;;;;;;;4.67;4.67;;;;;;;;5074100;28;45404;-82
2021/08/13 04:33:55;;;;;;;;;4.25;3.75;;;;;;;;5082720;28;46330;-82
2021/08/13 04:36:20;;;;;;;;;7.33;5.00;;;;;;;;5078257;28;45226;-82
2021/08/13 04:38:45;;;;;;;;;4.67;4.00;;;;;;;;5072056;28;45195;-82
2021/08/13 04:41:10;;;;;;;;;8.00;4.25;;;;;;;;5065257;28;45454;-82
2021/08/13 04:43:36;;;;;;;;;5.25;5.25;;;;;;;;5083054;28;45249;-82
2021/08/13 04:46:01;;;;;;;;;5.33;5.33;;;;;;;;5079923;28;45222;-82
2021/08/13 04:48:26;;;;;;;;;5.25;5.25;;;;;;;;5073145;28;45377;-82
2021/08/13 04:50:51;;;;;;;;;6.00;4.67;;;;;;;;5086113;28;45141;-82
2021/08/13 04:53:16;;;;;;;;;8.00;5.00;;;;;;;;5076818;28;45588;-82
2021/08/13 04:55:42;;;;;;;;;9.00;5.33;;;;;;;;5065813;28;45219;-82
2021/08/13 04:58:07;;;;;;;;;4.00;4.00;;;;;;;;5082206;28;45344;-82
2021/08/13 05:00:32;;;;;;;;;4.00;4.00;;;;;;;;5082693;28;45639;-82
2021/08/13 05:02:57;;;;;;;;;6.00;4.00;;;;;;;;5082416;28;45326;-82
2021/08/13 05:05:23;;;;;;;;;6.33;4.00;;;;;;;;5082875;28;45520;-82
2021/08/13 05:07:48;;;;;;;;;6.67;4.67;;;;;;;;5071684;28;45603;-82
2021/08/13 05:10:14;;;;;;;;;8.50;5.00;;;;;;;;5071341;28;45349;-82
2021/08/13 05:12:40;;;;;;;;;5.00;4.00;;;;;;;;5065932;28;45429;-83
2021/08/13 05:15:06;;;;;;;;;5.25;4.00;;;;;;;;5082438;28;45285;-82
2021/08/13 05:17:31;;;;;;;;;6.00;5.00;;;;;;;;5077816;28;45357;-82
2021/08/13 05:19:56;;;;;;;;;4.50;4.00;;;;;;;;5080536;28;45507;-82
2021/08/13 05:22:22;;;;;;;;;4.50;3.25;;;;;;;;5078934;28;45525;-82
2021/08/13 05:24:47;;;;;;;;;3.67;2.67;;;;;;;;5071066;28;45382;-82
2021/08/13 05:27:12;;;;;;;;;4.33;4.00;;;;;;;;5061984;28;45552;-82
2021/08/13 05:29:37;;;;;;;;;3.33;3.33;;;;;;;;5062118;28;45550;-82
2021/08/13 05:32:03;;;;;;;;;6.00;5.00;;;;;;;;5077570;28;45453;-82
2021/08/13 05:34:28;;;;;;;;;6.00;3.50;;;;;;;;5081125;28;45449;-82
2021/08/13 05:36:53;;;;;;;;;6.33;5.00;;;;;;;;5077859;28;45246;-82
2021/08/13 05:39:18;;;;;;;;;7.33;5.00;;;;;;;;5078411;28;45460;-82
2021/08/13 05:41:43;;;;;;;;;3.33;3.33;;;;;;;;5079526;28;45443;-82
2021/08/13 05:44:09;;;;;;;;;5.00;4.00;;;;;;;;5079014;28;45313;-82
2021/08/13 05:46:34;;;;;;;;;7.00;4.00;;;;;;;;5080107;28;45505;-82
2021/08/13 05:49:00;;;;;;;;;4.00;4.00;;;;;;;;5077446;28;45488;-82
2021/08/13 05:51:26;;;;;;;;;5.75;5.00;;;;;;;;5079036;28;46321;-82
2021/08/13 05:53:51;;;;;;;;;6.00;4.50;;;;;;;;5074641;28;45366;-82
2021/08/13 05:56:16;;;;;;;;;6.00;4.67;;;;;;;;5075090;28;45323;-82
2021/08/13 05:58:41;;;;;;;;;5.00;5.00;;;;;;;;5081688;28;45219;-82
2021/08/13 06:01:06;;;;;;;;;7.00;4.33;;;;;;;;5076110;28;46636;-82
2021/08/13 06:03:32;;;;;;;;;5.33;5.33;;;;;;;;5081290;28;45340;-82
2021/08/13 06:05:57;;;;;;;;;5.33;5.00;;;;;;;;5070874;28;45504;-82
2021/08/13 06:08:22;;;;;;;;;4.33;3.67;;;;;;;;5062951;28;45426;-82
2021/08/13 06:10:47;;;;;;;;;4.67;3.00;;;;;;;;5067318;28;47470;-82
2021/08/13 06:13:14;;;;;;;;;5.00;5.00;;;;;;;;5074753;28;45155;-82
2021/08/13 06:15:39;;;;;;;;;5.25;5.00;;;;;;;;5076091;28;45370;-83
2021/08/13 06:18:05;;;;;;;;;4.00;4.00;;;;;;;;5079884;28;45312;-82
2021/08/13 06:20:30;;;;;;;;;6.67;4.00;;;;;;;;5068333;28;45444;-82
2021/08/13 06:22:55;;;;;;;;;4.00;4.00;;;;;;;;5080106;28;45449;-82
2021/08/13 06:25:20;;;;;;;;;5.67;4.00;;;;;;;;5078258;28;45335;-82
2021/08/13 06:27:46;;;;;;;;;5.25;4.00;;;;;;;;5079517;28;45637;-82
2021/08/13 06:30:12;;;;;;;;;5.25;4.00;;;;;;;;5074381;28;47546;-84
2021/08/13 06:32:37;;;;;;;;;6.00;3.25;;;;;;;;5077546;28;45454;-84
2021/08/13 06:35:03;;;;;;;;;6.75;4.00;;;;;;;;5078720;27;45452;-84
2021/08/13 06:37:29;;;;;;;;;6.25;3.00;;;;;;;;5075160;27;45624;-84
2021/08/13 06:39:54;;;;;;;;;5.50;4.25;;;;;;;;5080028;27;45798;-86
2021/08/13 06:42:19;;;;;;;;;6.00;4.00;;;;;;;;5077485;27;45487;-85
2021/08/13 06:44:44;;;;;;;;;6.33;4.00;;;;;;;;5086891;27;45443;-85
2021/08/13 06:47:10;;;;;;;;;5.67;3.00;;;;;;;;5088856;27;45414;-85
2021/08/13 06:49:35;;;;;;;;;4.75;3.00;;;;;;;;5073550;28;45601;-85
2021/08/13 06:52:02;;;;;;;;;6.75;3.75;;;;;;;;5074661;28;46288;-85
2021/08/13 06:54:27;;;;;;;;;3.00;3.00;;;;;;;;5077657;28;45354;-84
2021/08/13 06:56:52;;;;;;;;;4.75;4.75;;;;;;;;5074418;27;45533;-84
2021/08/13 06:59:18;;;;;;;;;7.00;5.00;;;;;;;;5077043;27;46375;-84
2021/08/13 07:01:43;;;;;;;;;4.33;3.33;;;;;;;;5080002;27;45405;-83
2021/08/13 07:04:08;;;;;;;;;6.00;5.00;;;;;;;;5078966;27;45593;-83
2021/08/13 07:06:33;;;;;;;;;7.00;5.00;;;;;;;;5081143;27;45482;-84
2021/08/13 07:08:59;;;;;;;;;4.00;3.00;;;;;;;;5104057;27;46201;-82
2021/08/13 07:11:25;;;;;;;;;7.50;4.25;;;;;;;;5090553;27;45655;-86
2021/08/13 07:13:50;;;;;;;;;3.33;2.67;;;;;;;;5076882;28;45584;-85
2021/08/13 07:16:15;;;;;;;;;5.67;4.00;;;;;;;;5077346;28;45505;-86
2021/08/13 07:18:41;;;;;;;;;4.50;4.50;;;;;;;;5077467;28;47743;-84
2021/08/13 07:21:06;;;;;;;;;6.25;5.00;;;;;;;;5077230;28;45497;-84
2021/08/13 07:23:32;;;;;;;;;3.00;3.00;;;;;;;;5076706;27;45462;-83
2021/08/13 07:25:57;;;;;;;;;7.00;5.00;;;;;;;;5073212;28;45603;-84
2021/08/13 07:28:22;;;;;;;;;6.67;4.00;;;;;;;;5077570;28;46341;-84
2021/08/13 07:30:47;;;;;;;;;8.00;4.25;;;;;;;;5077610;28;45503;-84
2021/08/13 07:33:13;;;;;;;;;6.00;4.00;;;;;;;;5077840;28;45379;-84
2021/08/13 07:35:38;;;;;;;;;4.67;4.00;;;;;;;;5078464;28;45235;-84
2021/08/13 07:38:03;;;;;;;;;10.50;7.00;;;;;;;;5076925;28;45373;-84
2021/08/13 07:40:29;;;;;;;;;5.75;3.25;;;;;;;;5075855;28;45234;-85
2021/08/13 07:42:55;;;;;;;;;4.50;4.50;;;;;;;;5074569;28;45277;-85
2021/08/13 07:45:20;;;;;;;;;6.50;5.00;;;;;;;;5075998;28;45636;-85
2021/08/13 07:47:45;;;;;;;;;8.00;4.75;;;;;;;;5077962;28;46476;-85
2021/08/13 07:50:11;;;;;;;;;5.75;4.75;;;;;;;;5072477;28;45388;-85
2021/08/13 07:52:36;;;;;;;;;5.00;3.00;;;;;;;;5074676;28;45255;-85
2021/08/13 07:55:01;;;;;;;;;2.67;2.67;;;;;;;;5078121;28;46005;-85
2021/08/13 07:57:26;;;;;;;;;5.00;3.75;;;;;;;;5075035;28;45372;-85
2021/08/13 07:59:52;;;;;;;;;6.67;4.00;;;;;;;;5081674;28;45207;-85
2021/08/13 08:02:18;;;;;;;;;5.00;3.50;;;;;;;;5080597;28;45463;-85
2021/08/13 08:04:44;;;;;;;;;4.25;4.00;;;;;;;;5081707;28;45563;-85
2021/08/13 08:07:10;;;;;;;;;5.00;3.25;;;;;;;;5079055;28;45903;-86
2021/08/13 08:09:35;;;;;;;;;5.00;4.00;;;;;;;;5081077;28;45466;-85
2021/08/13 08:12:00;;;;;;;;;3.75;3.50;;;;;;;;5075107;27;46541;-85
2021/08/13 08:14:25;;;;;;;;;3.67;3.67;;;;;;;;5080014;28;45531;-85
2021/08/13 08:16:51;;;;;;;;;6.25;3.75;;;;;;;;5080613;28;45939;-86
2021/08/13 08:19:16;;;;;;;;;2.25;2.00;;;;;;;;5078632;28;46568;-86
2021/08/13 08:21:43;;;;;;;;;2.75;2.25;;;;;;;;5080356;28;45389;-86
2021/08/13 08:24:08;;;;;;;;;4.75;4.00;;;;;;;;5077540;28;45778;-86
2021/08/13 08:26:33;;;;;;;;;5.00;3.00;;;;;;;;5079521;28;45479;-85
2021/08/13 08:28:59;;;;;;;;;4.25;4.25;;;;;;;;5074568;27;45297;-86
2021/08/13 08:31:24;;;;;;;;;6.25;4.50;;;;;;;;5079408;28;45568;-85
2021/08/13 08:33:49;;;;;;;;;4.00;3.00;;;;;;;;5081067;28;45416;-84
2021/08/13 08:36:14;;;;;;;;;4.00;3.00;;;;;;;;5079477;28;45435;-84
2021/08/13 08:38:40;;;;;;;;;7.50;3.00;;;;;;;;5077364;28;45443;-84
2021/08/13 08:41:06;;;;;;;;;3.50;3.50;;;;;;;;5082612;28;45461;-84
2021/08/13 08:43:32;;;;;;;;;6.00;3.75;;;;;;;;5078124;28;45461;-84
2021/08/13 08:45:58;;;;;;;;;4.00;4.00;;;;;;;;5080280;28;48501;-85
2021/08/13 08:48:24;;;;;;;;;5.25;3.25;;;;;;;;5079759;28;45440;-84
2021/08/13 08:50:49;;;;;;;;;3.25;3.00;;;;;;;;5078563;28;45630;-85
2021/08/13 08:53:21;;;;;;;;;4.25;3.50;;;;;;;;5079695;27;45468;-84
2021/08/13 08:55:46;;;;;;;;;5.50;3.75;;;;;;;;5078460;28;48337;-85
2021/08/13 08:58:12;;;;;;;;;4.00;3.50;;;;;;;;5076238;27;45461;-85
2021/08/13 09:00:37;;;;;;;;;3.75;3.50;;;;;;;;5074380;27;45755;-85
2021/08/13 09:03:02;;;;;;;;;3.25;2.50;;;;;;;;5079890;28;45424;-85
2021/08/13 09:05:28;;;;;;;;;5.25;4.00;;;;;;;;5079052;28;45611;-85
2021/08/13 09:07:53;;;;;;;;;6.00;4.25;;;;;;;;5080501;28;45267;-85
2021/08/13 09:10:18;;;;;;;;;5.50;4.25;;;;;;;;5078378;28;45461;-85
2021/08/13 09:12:43;;;;;;;;;4.00;4.00;;;;;;;;5079263;27;45356;-85
2021/08/13 09:15:32;;;;;;;;;5.00;4.00;;;;;;;;5074211;28;47520;-85
2021/08/13 09:18:17;;;;;;;;;3.50;3.50;;;;;;;;5074596;27;45559;-85
2021/08/13 09:20:46;;;;;;;;;8.00;3.00;;;;;;;;5078547;28;45571;-85
2021/08/13 09:23:27;;;;;;;;;3.50;3.50;;;;;;;;5077466;27;45415;-85
2021/08/13 09:26:03;;;;;;;;;0.00;0.00;;;;;;;;5075767;28;45392;-86
2021/08/13 09:28:46;;;;;;;;;4.00;3.00;;;;;;;;5082233;28;45416;-85
2021/08/13 09:31:22;;;;;;;;;2.00;2.00;;;;;;;;5079795;28;45463;-85
2021/08/13 09:33:50;;;;;;;;;4.50;3.00;;;;;;;;5080320;27;45407;-86
2021/08/13 09:36:16;;;;;;;;;2.00;2.00;;;;;;;;5078981;28;45826;-85
2021/08/13 09:38:42;;;;;;;;;7.00;4.75;;;;;;;;5080270;28;45469;-85
2021/08/13 09:41:07;;;;;;;;;4.25;4.25;;;;;;;;5077948;28;45480;-85
2021/08/13 09:43:32;;;;;;;;;3.67;3.33;;;;;;;;5078314;28;45360;-85
2021/08/13 09:46:05;;;;;;;;;3.75;3.75;;;;;;;;5075560;27;45375;-85
2021/08/13 09:48:30;;;;;;;;;5.00;4.00;;;;;;;;5079176;28;45455;-86
2021/08/13 09:50:55;;;;;;;;;7.50;4.50;;;;;;;;5080025;28;45203;-86
2021/08/13 09:53:20;;;;;;;;;4.00;4.00;;;;;;;;5080620;28;45222;-86
2021/08/13 09:55:46;;;;;;;;;4.25;4.25;;;;;;;;5078129;28;48099;-86
2021/08/13 09:58:11;;;;;;;;;4.33;4.33;;;;;;;;5078925;28;45377;-85
2021/08/13 10:00:46;;;;;;;;;5.75;5.00;;;;;;;;5075363;28;45516;-86
2021/08/13 10:03:12;;;;;;;;;4.00;4.00;;;;;;;;5077416;28;45622;-85
2021/08/13 10:05:37;;;;;;;;;4.50;4.00;;;;;;;;5078438;28;47477;-85
2021/08/13 10:08:03;;;;;;;;;6.00;4.25;;;;;;;;5082230;27;45436;-86
2021/08/13 10:10:28;;;;;;;;;5.25;5.25;;;;;;;;5077024;28;45601;-85
2021/08/13 10:12:54;;;;;;;;;5.75;4.50;;;;;;;;5082434;27;45375;-85
2021/08/13 10:15:30;;;;;;;;;4.00;4.00;;;;;;;;5084226;28;45440;-85
2021/08/13 10:17:59;;;;;;;;;2.50;1.00;;;;;;;;5077034;28;45712;-86
2021/08/13 10:20:25;;;;;;;;;7.25;5.50;;;;;;;;5078884;27;45504;-85
2021/08/13 10:22:51;;;;;;;;;5.50;4.75;;;;;;;;5079827;27;46087;-86
2021/08/13 10:25:16;;;;;;;;;8.50;8.00;;;;;;;;5077203;27;46163;-86
2021/08/13 10:27:42;;;;;;;;;5.75;5.75;;;;;;;;5078110;28;45789;-86
2021/08/13 10:30:07;;;;;;;;;5.00;5.00;;;;;;;;5078129;28;45517;-86
2021/08/13 10:32:33;;;;;;;;;9.75;6.50;;;;;;;;5073278;28;45430;-87
2021/08/13 10:34:58;;;;;;;;;7.00;5.50;;;;;;;;5080660;28;46147;-84
2021/08/13 10:37:26;;;;;;;;;5.50;5.50;;;;;;;;5085368;27;45335;-86
2021/08/13 10:39:54;;;;;;;;;7.25;6.00;;;;;;;;5079779;28;45471;-85
2021/08/13 10:42:21;;;;;;;;;4.75;4.75;;;;;;;;5061798;28;45334;-85
2021/08/13 10:44:51;;;;;;;;;7.25;6.75;;;;;;;;5059857;28;45867;-85
2021/08/13 10:47:19;;;;;;;;;7.50;7.50;;;;;;;;5068870;28;45768;-85
2021/08/13 10:49:45;;;;;;;;;7.50;6.75;;;;;;;;5067834;28;45318;-84
2021/08/13 10:52:10;;;;;;;;;6.00;6.00;;;;;;;;5079662;28;45592;-85
2021/08/13 10:54:42;;;;;;;;;7.00;5.67;;;;;;;;5081159;28;45554;-84
2021/08/13 10:57:08;;;;;;;;;7.25;7.25;;;;;;;;5080624;28;45337;-85
2021/08/13 10:59:40;;;;;;;;;6.00;6.00;;;;;;;;5082806;28;45227;-84
2021/08/13 11:02:18;;;;;;;;;6.50;6.50;;;;;;;;5077598;28;45304;-84
2021/08/13 11:04:44;;;;;;;;;10.00;8.00;;;;;;;;5080614;28;45680;-85
2021/08/13 11:07:12;;;;;;;;;8.25;7.00;;;;;;;;5080237;28;45309;-85
2021/08/13 11:09:38;;;;;;;;;8.00;8.00;;;;;;;;5079727;28;45180;-85
2021/08/13 11:12:09;;;;;;;;;9.50;8.00;;;;;;;;5068545;28;45452;-84
2021/08/13 11:14:46;;;;;;;;;8.00;7.00;;;;;;;;5078902;28;47708;-85
2021/08/13 11:17:30;;;;;;;;;9.00;6.25;;;;;;;;5079131;28;45335;-85
2021/08/13 11:19:56;;;;;;;;;8.50;8.00;;;;;;;;5079534;28;45315;-85
2021/08/13 11:22:37;;;;;;;;;10.75;9.00;;;;;;;;5080676;28;45247;-85
2021/08/13 11:25:05;;;;;;;;;7.75;7.75;;;;;;;;5080439;28;46453;-85
2021/08/13 11:27:31;;;;;;;;;11.00;9.00;;;;;;;;5080484;28;45428;-85
2021/08/13 11:29:57;;;;;;;;;13.00;10.50;;;;;;;;5080553;28;45269;-85
2021/08/13 11:32:24;;;;;;;;;11.00;9.00;;;;;;;;5078548;28;45270;-85
2021/08/13 11:34:52;;;;;;;;;9.75;8.50;;;;;;;;5080023;28;46523;-84
2021/08/13 11:37:38;;;;;;;;;10.25;7.75;;;;;;;;5080276;28;45453;-85
2021/08/13 11:40:12;;;;;;;;;11.00;9.00;;;;;;;;5080334;28;45405;-85
2021/08/13 11:42:38;;;;;;;;;4.25;2.75;;;;;;;;5080542;28;45429;-85
2021/08/13 11:45:05;;;;;;;;;9.75;9.50;;;;;;;;5079148;28;46842;-85
2021/08/13 11:47:31;;;;;;;;;7.00;7.00;;;;;;;;5082167;28;45380;-84
2021/08/13 11:49:56;;;;;;;;;8.00;8.00;;;;;;;;5082364;28;45280;-85
2021/08/13 11:52:23;;;;;;;;;8.00;8.00;;;;;;;;5080329;28;45491;-84
2021/08/13 11:54:49;;;;;;;;;8.00;8.00;;;;;;;;5079821;28;45377;-84
2021/08/13 11:57:19;;;;;;;;;10.00;8.50;;;;;;;;5079986;28;45452;-84
2021/08/13 11:59:45;;;;;;;;;8.50;8.50;;;;;;;;5080168;28;45460;-84
2021/08/13 12:02:11;;;;;;;;;8.50;7.75;;;;;;;;5080067;28;45156;-84
2021/08/13 12:04:36;;;;;;;;;11.00;10.00;;;;;;;;5078791;28;47158;-84
2021/08/13 12:07:04;;;;;;;;;10.00;8.00;;;;;;;;5080180;28;45218;-84
2021/08/13 12:09:31;;;;;;;;;7.25;7.25;;;;;;;;5078361;28;45425;-84
2021/08/13 12:11:56;;;;;;;;;10.50;8.25;;;;;;;;5077899;28;45437;-84
2021/08/13 12:14:22;;;;;;;;;10.50;8.75;;;;;;;;5073442;28;45797;-87
2021/08/13 12:16:54;;;;;;;;;9.00;8.00;;;;;;;;5071910;28;45458;-85
2021/08/13 12:19:20;;;;;;;;;7.50;7.50;;;;;;;;5077745;28;45496;-85
2021/08/13 12:21:51;;;;;;;;;8.25;8.25;;;;;;;;5076203;27;45315;-85
2021/08/13 12:24:27;;;;;;;;;9.00;8.00;;;;;;;;5072017;28;45280;-86
2021/08/13 12:27:05;;;;;;;;;6.50;6.50;;;;;;;;5068530;28;45484;-86
2021/08/13 12:29:31;;;;;;;;;11.75;8.25;;;;;;;;5073470;27;45809;-85
2021/08/13 12:31:59;;;;;;;;;9.25;7.00;;;;;;;;5089442;27;45394;-85
2021/08/13 12:34:25;;;;;;;;;9.75;8.00;;;;;;;;5075374;28;45325;-85
2021/08/13 12:37:00;;;;;;;;;9.25;7.25;;;;;;;;5063411;27;45539;-85
2021/08/13 12:39:25;;;;;;;;;7.25;7.25;;;;;;;;5076436;27;46461;-84
2021/08/13 12:41:51;;;;;;;;;9.00;8.00;;;;;;;;5074559;28;45860;-84
2021/08/13 12:44:16;;;;;;;;;8.00;7.25;;;;;;;;5061498;28;47227;-84
2021/08/13 12:46:43;;;;;;;;;8.75;7.50;;;;;;;;5083218;28;45402;-85
2021/08/13 12:49:08;;;;;;;;;9.25;8.25;;;;;;;;5084888;27;45520;-85
2021/08/13 12:51:34;;;;;;;;;10.75;7.75;;;;;;;;5083558;28;45746;-85
2021/08/13 12:53:59;;;;;;;;;9.50;8.75;;;;;;;;5084535;28;46447;-84
2021/08/13 12:56:24;;;;;;;;;8.50;7.00;;;;;;;;5081952;28;45764;-83
2021/08/13 12:58:50;;;;;;;;;10.75;7.50;;;;;;;;5075582;28;45470;-84
2021/08/13 13:01:25;;;;;;;;;8.00;7.00;;;;;;;;5082232;27;45470;-91
2021/08/13 13:04:04;;;;;;;;;9.50;7.50;;;;;;;;5095190;27;45442;-90
2021/08/13 13:06:31;;;;;;;;;10.50;8.50;;;;;;;;5085499;28;45526;-89
2021/08/13 13:08:57;;;;;;;;;7.50;7.50;;;;;;;;5079835;28;45421;-90
2021/08/13 13:11:23;;;;;;;;;9.00;7.25;;;;;;;;5078042;28;45549;-89
2021/08/13 13:13:49;;;;;;;;;6.00;6.00;;;;;;;;5078832;28;47554;-89
2021/08/13 13:16:14;;;;;;;;;7.75;7.75;;;;;;;;5079278;28;45512;-90
2021/08/13 13:18:40;;;;;;;;;8.50;7.75;;;;;;;;5085450;27;45455;-89
2021/08/13 13:21:17;;;;;;;;;6.50;6.50;;;;;;;;5091066;27;45561;-88
2021/08/13 13:23:43;;;;;;;;;8.50;8.50;;;;;;;;5091309;27;45820;-89
2021/08/13 13:26:09;;;;;;;;;8.50;7.00;;;;;;;;5082481;28;45513;-88
2021/08/13 13:28:34;;;;;;;;;9.75;7.00;;;;;;;;5078701;27;45448;-89
2021/08/13 13:31:11;;;;;;;;;8.67;7.67;;;;;;;;5080081;28;45345;-89
2021/08/13 13:33:36;;;;;;;;;0.50;0.50;;;;;;;;5079089;27;46774;-88
2021/08/13 13:36:02;;;;;;;;;8.75;7.00;;;;;;;;5078435;27;45841;-88
2021/08/13 13:38:29;;;;;;;;;8.00;8.00;;;;;;;;5084044;27;45515;-88
2021/08/13 13:40:55;;;;;;;;;9.75;8.75;;;;;;;;5085359;27;45507;-87
2021/08/13 13:43:20;;;;;;;;;7.50;7.50;;;;;;;;5085487;27;46563;-90
2021/08/13 13:45:45;;;;;;;;;9.25;8.00;;;;;;;;5078746;28;45464;-90
2021/08/13 13:48:11;;;;;;;;;7.50;6.25;;;;;;;;5078728;28;45318;-89
2021/08/13 13:50:36;;;;;;;;;8.75;7.00;;;;;;;;5077775;28;45501;-88
2021/08/13 13:53:02;;;;;;;;;11.00;8.25;;;;;;;;5079536;28;45500;-89
2021/08/13 13:55:27;;;;;;;;;7.25;6.25;;;;;;;;5076557;28;45458;-88
2021/08/13 13:57:53;;;;;;;;;8.00;6.75;;;;;;;;5079233;27;45495;-88
2021/08/13 14:00:18;;;;;;;;;8.00;8.00;;;;;;;;5077859;27;45577;-88
2021/08/13 14:02:44;;;;;;;;;9.00;7.00;;;;;;;;5077628;28;47235;-89
2021/08/13 14:05:10;;;;;;;;;6.75;6.25;;;;;;;;5073469;28;45953;-95
2021/08/13 14:07:40;;;;;;;;;7.25;7.25;;;;;;;;5077665;28;45481;-87
2021/08/13 14:10:07;;;;;;;;;7.25;6.50;;;;;;;;5080103;27;45468;-87
2021/08/13 14:12:33;;;;;;;;;9.75;9.50;;;;;;;;5080015;27;45619;-84
2021/08/13 14:14:58;;;;;;;;;9.25;8.25;;;;;;;;5084898;27;45638;-85
2021/08/13 14:17:23;;;;;;;;;10.50;6.00;;;;;;;;5082402;27;45607;-87
2021/08/13 14:19:49;;;;;;;;;9.00;7.00;;;;;;;;5080793;28;45227;-86
2021/08/13 14:22:14;;;;;;;;;9.00;8.00;;;;;;;;5076711;28;47273;-87
2021/08/13 14:24:39;;;;;;;;;9.50;8.00;;;;;;;;5079480;28;46412;-86
2021/08/13 14:27:04;;;;;;;;;7.67;7.67;;;;;;;;5079002;28;47113;-86
2021/08/13 14:29:29;;;;;;;;;9.25;6.50;;;;;;;;5078473;28;45408;-86
2021/08/13 14:31:55;;;;;;;;;6.33;4.67;;;;;;;;5078531;28;45523;-87
2021/08/13 14:34:20;;;;;;;;;6.00;5.00;;;;;;;;5077007;28;45453;-87